Airport View

Enter AWOS ICAO identifier for current METAR.

ex. KFNL

KSRB 120515Z AUTO 00000KT 10SM CLR M05/M05 A3051 RMK A01

12 Dec 2019 05:34

Frequency: 128.25

Phone: 931-738-3111

Other Area AWOS: KCSV - K8A3 - KRNC - KM54

TAF KCSV 112340Z 1200/1224 08002KT P6SM SKC FM121800 16007KT P6SM SCT250